Flight Track Log - Related Links

Times and Time Zones

All times are in EDT time to prevent confusion due to time zone crossing. See the XOJ552 flight status page for this flight to view local times or setup timezone preferences in your user account.

Time Position Orientation Groundspeed Altitude Reporting Facility
EDT Latitude Longitude Course Direction KTS MPH feet Rate Location/Type
Wed 08:32:47 AM 40.8333 -74.1000 294° West 173 199 1,100  Level New York TRACON
Wed 08:33:47 AM 40.8167 -74.1667 252° West 206 237 1,600 1,700 Climbing New York TRACON
Wed 08:34:47 AM 40.8167 -74.2333 270° West 236 272 4,500 3,350 Climbing New York TRACON
Wed 08:35:47 AM 40.8167 -74.3333 270° West 257 296 8,300 2,750 Climbing New York TRACON
Wed 08:36:47 AM 40.8500 -74.4167 298° West 278 320 10,000 1,010 Climbing New York TRACON
Wed 08:38:00 AM 40.8840 -74.8520 294° West  Level FlightAware Approximate
Wed 08:39:03 AM 40.9556 -74.6067 306° West 282 325 11,600  Level New York Center
Wed 08:40:03 AM 40.9567 -74.6972 271° West 262 302 14,000 2,459 Climbing New York Center
Wed 08:41:05 AM 40.9467 -74.8150 264° West 296 341 16,600 1,967 Climbing New York Center
Wed 08:42:05 AM 40.9344 -74.9239 262° West 330 380 18,000 1,800 Climbing New York Center
Wed 08:43:05 AM 40.9114 -75.0408 255° West 336 387 20,200 2,136 Climbing New York Center
Wed 08:44:03 AM 40.8858 -75.1736 256° West 353 406 22,200 1,881 Climbing New York Center
Wed 08:45:03 AM 40.8578 -75.3061 254° West 373 429 23,900 1,686 Climbing New York Center
Wed 08:46:04 AM 40.8294 -75.4442 255° West 386 444 25,600 1,623 Climbing New York Center
Wed 08:47:05 AM 40.8133 -75.5883 262° West 394 453 27,200 1,563 Climbing New York Center
Wed 08:48:03 AM 40.8258 -75.7375 276° West 394 453 28,700 1,462 Climbing New York Center
Wed 08:49:04 AM 40.8403 -75.8892 277° West 411 473 30,100 1,328 Climbing New York Center
Wed 08:50:05 AM 40.8544 -76.0442 277° West 416 479 31,400 1,190 Climbing New York Center
Wed 08:51:05 AM 40.8697 -76.2125 277° West 421 484 32,500 1,091 Climbing New York Center
Wed 08:52:06 AM 40.8850 -76.3731 277° West 432 497 33,600 1,169 Climbing New York Center
Wed 08:53:03 AM 40.8983 -76.5306 276° West 438 504 34,800 1,231 Climbing New York Center
Wed 08:54:03 AM 40.9111 -76.6939 276° West 443 510 36,000 1,190 Climbing New York Center
Wed 08:55:04 AM 40.9261 -76.8517 277° West 448 516 37,200 1,240 Climbing New York Center
Wed 08:56:04 AM 40.9389 -77.0067 276° West 448 516 38,500 1,180 Climbing New York Center
Wed 08:57:06 AM 40.9536 -77.1619 277° West 437 503 39,600 950 Climbing New York Center
Wed 08:58:04 AM 40.9683 -77.3117 277° West 430 495 40,400 756 Climbing New York Center
Wed 08:59:05 AM 40.9789 -77.4586 275° West 416 479 41,100 706 Climbing New York Center
Wed 09:00:03 AM 40.9911 -77.6056 276° West 410 472 41,800 585 Climbing New York Center
Wed 09:01:08 AM 41.0014 -77.7519 275° West 411 473 42,300 480 Climbing Cleveland Center
Wed 09:02:08 AM 41.0133 -77.8972 276° West 421 484 42,800 353 Climbing Cleveland Center
Wed 09:03:07 AM 41.0250 -78.0453 276° West 421 484 43,000 101 Climbing Cleveland Center
Wed 09:04:07 AM 41.0367 -78.1908 276° West 416 479 43,000  Level Cleveland Center
Wed 09:05:08 AM 41.0500 -78.3472 277° West 416 479 43,000  Level Cleveland Center
Wed 09:06:07 AM 41.0636 -78.5039 277° West 421 484 43,000  Level Cleveland Center
Wed 09:07:07 AM 41.0744 -78.6578 275° West 421 484 43,000  Level Cleveland Center
Wed 09:08:08 AM 41.0853 -78.8144 275° West 426 490 43,000  Level Cleveland Center
Wed 09:09:07 AM 41.0939 -78.9742 274° West 426 490 43,000  Level Cleveland Center
Wed 09:10:08 AM 41.1067 -79.1447 276° West 426 490 43,000  Level Cleveland Center
Wed 09:11:07 AM 41.1150 -79.3069 274° West 431 496 43,000  Level Cleveland Center
Wed 09:12:08 AM 41.1269 -79.4667 276° West 437 503 43,000  Level Cleveland Center
Wed 09:13:07 AM 41.1367 -79.6208 275° West 437 503 43,000  Level Cleveland Center
Wed 09:14:08 AM 41.1442 -79.7697 274° West 442 509 43,000  Level Cleveland Center
Wed 09:15:07 AM 41.1533 -79.9269 274° West 436 502 43,000  Level Cleveland Center
Wed 09:16:07 AM 41.1647 -80.0978 275° West 436 502 43,000  Level Cleveland Center
Wed 09:17:07 AM 41.1736 -80.2550 274° West 436 502 43,000  Level Cleveland Center
Wed 09:18:07 AM 41.1822 -80.4122 274° West 436 502 43,000  Level Cleveland Center
Wed 09:19:07 AM 41.1886 -80.5667 273° West 431 496 43,000  Level Cleveland Center
Wed 09:20:07 AM 41.1969 -80.7211 274° West 425 489 43,000  Level Cleveland Center
Wed 09:21:07 AM 41.2050 -80.8783 274° West 426 490 43,000  Level Cleveland Center
Wed 09:22:07 AM 41.2128 -81.0219 274° West 435 501 43,000  Level Cleveland Center
Wed 09:23:08 AM 41.2206 -81.1822 274° West 435 501 43,000  Level Cleveland Center
Wed 09:24:08 AM 41.2278 -81.3425 273° West 441 507 43,000  Level Cleveland Center
Wed 09:25:08 AM 41.2389 -81.5219 275° West 441 507 43,000  Level Cleveland Center
Wed 09:26:08 AM 41.2481 -81.6794 274° West 441 507 43,000  Level Cleveland Center
Wed 09:27:08 AM 41.2547 -81.8369 273° West 441 507 43,000  Level Cleveland Center
Wed 09:28:07 AM 41.2614 -81.9892 273° West 435 501 43,000  Level Cleveland Center
Wed 09:29:08 AM 41.2633 -82.1522 271° West 435 501 43,000  Level Cleveland Center
Wed 09:30:07 AM 41.2694 -82.3097 273° West 435 501 43,000  Level Cleveland Center
Wed 09:31:08 AM 41.2756 -82.4508 273° West 435 501 43,000  Level Cleveland Center
Wed 09:32:08 AM 41.2811 -82.6086 273° West 435 501 43,000  Level Cleveland Center
Wed 09:33:07 AM 41.2864 -82.7717 273° West 440 506 43,000  Level Cleveland Center
Wed 09:34:07 AM 41.2917 -82.9294 273° West 440 506 43,000  Level Cleveland Center
Wed 09:35:07 AM 41.2967 -83.0928 272° West 440 506 43,000  Level Cleveland Center
Wed 09:36:07 AM 41.3011 -83.2558 272° West 440 506 43,000  Level Cleveland Center
Wed 09:37:07 AM 41.3075 -83.4331 273° West 440 506 43,000  Level Cleveland Center
Wed 09:38:08 AM 41.3122 -83.5744 273° West 440 506 43,000  Level Cleveland Center
Wed 09:39:07 AM 41.3203 -83.7353 274° West 440 506 43,000  Level Cleveland Center
Wed 09:39:57 AM 41.3206 -83.8811 270° West 436 502 43,000  Level Chicago Center
Wed 09:40:59 AM 41.3244 -84.0428 272° West 440 506 43,000  Level Chicago Center
Wed 09:42:01 AM 41.3283 -84.2047 272° West 439 505 43,000  Level Chicago Center
Wed 09:43:04 AM 41.3314 -84.3694 271° West 443 510 43,000  Level Chicago Center
Wed 09:44:06 AM 41.3350 -84.5331 272° West 443 510 43,000  Level Chicago Center
Wed 09:45:08 AM 41.3381 -84.6978 271° West 445 512 43,000  Level Chicago Center
Wed 09:46:10 AM 41.3411 -84.8953 271° West 445 512 43,000  Level Chicago Center
Wed 09:47:12 AM 41.3428 -85.0592 271° West 442 509 43,000  Level Chicago Center
Wed 09:48:14 AM 41.3450 -85.2253 271° West 444 511 43,000  Level Chicago Center
Wed 09:49:16 AM 41.3469 -85.3931 271° West 449 517 43,000  Level Chicago Center
Wed 09:50:18 AM 41.3492 -85.5617 271° West 451 519 43,000  Level Chicago Center
Wed 09:51:20 AM 41.3506 -85.7289 271° West 449 517 43,000  Level Chicago Center
Wed 09:52:22 AM 41.3514 -85.8953 270° West 448 516 43,000  Level Chicago Center
Wed 09:53:24 AM 41.3533 -86.0967 271° West 451 519 43,000  Level Chicago Center
Wed 09:54:26 AM 41.3539 -86.2622 270° West 445 512 43,000  Level Chicago Center
Wed 09:55:28 AM 41.3550 -86.4261 271° West 444 511 43,000  Level Chicago Center
Wed 09:56:31 AM 41.3550 -86.5914 270° West 446 513 43,000  Level Chicago Center
Wed 09:57:33 AM 41.3544 -86.7708 270° West 443 510 43,000  Level Chicago Center
Wed 09:58:35 AM 41.3547 -86.9344 270° West 444 511 43,000  Level Chicago Center
Wed 09:59:37 AM 41.3542 -87.0972 270° West 444 511 43,000  Level Chicago Center
Wed 10:00:39 AM 41.3542 -87.2611 270° West 445 512 43,000  Level Chicago Center
Wed 10:01:41 AM 41.3533 -87.4561 270° West 443 510 43,000  Level Chicago Center
Wed 10:02:43 AM 41.3531 -87.6200 270° West 445 512 43,000  Level Chicago Center
Wed 10:03:45 AM 41.3519 -87.7831 270° West 442 509 43,000  Level Chicago Center
Wed 10:04:47 AM 41.3503 -87.9622 269° West 444 511 43,000  Level Chicago Center
Wed 10:05:49 AM 41.3508 -88.1286 270° West 449 517 43,000  Level Chicago Center
Wed 10:06:52 AM 41.3461 -88.2856 268° West 441 507 43,000  Level Chicago Center
Wed 10:07:54 AM 41.3442 -88.4506 269° West 444 511 43,000  Level Chicago Center
Wed 10:08:56 AM 41.3414 -88.6156 269° West 446 513 43,000  Level Chicago Center
Wed 10:09:58 AM 41.3375 -88.8139 269° West 450 518 43,000  Level Chicago Center
Wed 10:11:00 AM 41.3339 -88.9794 268° West 451 519 43,000  Level Chicago Center
Wed 10:12:02 AM 41.3306 -89.1439 269° West 449 517 43,000  Level Chicago Center
Wed 10:13:04 AM 41.3286 -89.3181 269° West 455 524 43,000  Level Chicago Center
Wed 10:14:06 AM 41.3253 -89.4839 269° West 453 521 43,000  Level Chicago Center
Wed 10:15:08 AM 41.3211 -89.6519 268° West 456 525 43,000  Level Chicago Center
Wed 10:16:10 AM 41.3169 -89.8542 268° West 459 528 43,000  Level Chicago Center
Wed 10:17:12 AM 41.3125 -90.0225 268° West 458 527 43,000  Level Chicago Center
Wed 10:18:14 AM 41.3075 -90.1903 268° West 458 527 43,000  Level Chicago Center
Wed 10:19:17 AM 41.3019 -90.3589 268° West 458 527 43,000  Level Chicago Center
Wed 10:20:19 AM 41.2964 -90.5286 268° West 460 529 43,000  Level Chicago Center
Wed 10:21:21 AM 41.2892 -90.7025 267° West 472 543 43,000  Level Chicago Center
Wed 10:22:23 AM 41.2825 -90.9075 268° West 466 536 43,000  Level Chicago Center
Wed 10:23:25 AM 41.2761 -91.0783 267° West 465 535 43,000  Level Chicago Center
Wed 10:24:27 AM 41.2694 -91.2506 267° West 468 539 43,000  Level Chicago Center
Wed 10:25:29 AM 41.2622 -91.4389 267° West 468 539 43,000  Level Chicago Center
Wed 10:26:31 AM 41.2553 -91.6108 267° West 469 540 43,000  Level Chicago Center
Wed 10:27:33 AM 41.2475 -91.7822 267° West 469 540 43,000  Level Chicago Center
Wed 10:28:35 AM 41.2400 -91.9539 267° West 469 540 43,000  Level Chicago Center
Wed 10:29:37 AM 41.2300 -92.1586 266° West 470 541 43,000  Level Chicago Center
Wed 10:30:39 AM 41.2219 -92.3311 267° West 473 544 43,000  Level Chicago Center
Wed 10:31:41 AM 41.2139 -92.5031 266° West 473 544 43,000  Level Chicago Center
Wed 10:32:43 AM 41.2042 -92.6767 266° West 478 550 43,000  Level Chicago Center
Wed 10:33:45 AM 41.1956 -92.8492 266° West 476 548 43,000  Level Chicago Center
Wed 10:34:47 AM 41.1844 -93.0572 266° West 478 550 43,000  Level Chicago Center
Wed 10:35:49 AM 41.1753 -93.2306 266° West 476 548 43,000  Level Chicago Center
Wed 10:36:51 AM 41.1656 -93.4061 266° West 482 555 43,000  Level Chicago Center
Wed 10:37:53 AM 41.1553 -93.5792 266° West 477 549 43,000  Level Chicago Center
Wed 10:38:55 AM 41.1447 -93.7517 265° West 475 547 43,000  Level Chicago Center
Wed 10:39:30 AM 41.1419 -93.8181 267° West 473 544 43,000  Level Minneapolis Center
Wed 10:40:33 AM 41.1283 -94.0592 266° West 475 547 43,000  Level Minneapolis Center
Wed 10:41:35 AM 41.1164 -94.2322 265° West 475 547 43,000  Level Minneapolis Center
Wed 10:42:37 AM 41.1053 -94.4061 265° West 477 549 43,000  Level Minneapolis Center
Wed 10:43:39 AM 41.0900 -94.6033 264° West 479 551 43,000  Level Minneapolis Center
Wed 10:44:41 AM 41.0786 -94.7769 265° West 475 547 43,000  Level Minneapolis Center
Wed 10:45:43 AM 41.0658 -94.9522 265° West 475 547 43,000  Level Minneapolis Center
Wed 10:46:45 AM 41.0528 -95.1283 264° West 477 549 43,000  Level Minneapolis Center
Wed 10:47:47 AM 41.0389 -95.3039 264° West 478 550 43,000  Level Minneapolis Center
Wed 10:48:50 AM 41.0225 -95.5169 264° West 480 552 43,000  Level Minneapolis Center
Wed 10:49:52 AM 41.0078 -95.6933 264° West 480 552 43,000  Level Minneapolis Center
Wed 10:50:54 AM 40.9947 -95.8722 265° West 482 555 43,000  Level Minneapolis Center
Wed 10:51:56 AM 40.9803 -96.0503 264° West 482 555 43,000  Level Minneapolis Center
Wed 10:52:58 AM 40.9658 -96.2292 264° West 483 556 43,000  Level Minneapolis Center
Wed 10:54:00 AM 40.9517 -96.4056 264° West 482 555 43,000  Level Minneapolis Center
Wed 10:55:02 AM 40.9364 -96.5811 263° West 479 551 43,000  Level Minneapolis Center
Wed 10:56:04 AM 40.9244 -96.7214 264° West 478 550 43,000  Level Minneapolis Center
Wed 10:57:06 AM 40.9011 -96.9672 263° West 481 554 43,000  Level Minneapolis Center
Wed 10:58:08 AM 40.8847 -97.1425 263° West 482 555 43,000  Level Minneapolis Center
Wed 10:59:10 AM 40.8681 -97.3161 263° West 478 550 43,000  Level Minneapolis Center
Wed 11:00:15 AM 40.8481 -97.5053 262° West 481 554 43,000  Level Minneapolis Center
Wed 11:01:17 AM 40.8311 -97.6817 263° West 483 556 43,000  Level Minneapolis Center
Wed 11:02:19 AM 40.8122 -97.8572 262° West 483 556 43,000  Level Minneapolis Center
Wed 11:03:22 AM 40.7950 -98.0353 263° West 485 558 43,000  Level Minneapolis Center
Wed 11:04:24 AM 40.7717 -98.2475 262° West 485 558 43,000  Level Minneapolis Center
Wed 11:05:26 AM 40.7528 -98.4264 262° West 487 560 43,000  Level Minneapolis Center
Wed 11:06:28 AM 40.7322 -98.6047 261° West 488 562 43,000  Level Minneapolis Center
Wed 11:07:30 AM 40.7122 -98.7833 262° West 488 562 43,000  Level Minneapolis Center
Wed 11:08:32 AM 40.6931 -98.9614 262° West 488 562 43,000  Level Minneapolis Center
Wed 11:09:34 AM 40.6728 -99.1392 262° West 488 562 43,000  Level Minneapolis Center
Wed 11:10:36 AM 40.6531 -99.3164 262° West 487 560 43,000  Level Minneapolis Center
Wed 11:11:38 AM 40.6325 -99.4942 261° West 488 562 43,000  Level Minneapolis Center
Wed 11:12:40 AM 40.6067 -99.7056 261° West 487 560 43,000  Level Minneapolis Center
Wed 11:13:42 AM 40.5864 -99.8819 261° West 487 560 43,000  Level Minneapolis Center
Wed 11:14:44 AM 40.5644 -100.0558 261° West 484 557 43,000  Level Minneapolis Center
Wed 11:15:46 AM 40.5425 -100.2319 261° West 485 558 43,000  Level Minneapolis Center
Wed 11:17:00 AM 40.5214 -100.4081 261° West 487 560 43,000  Level Minneapolis Center
Wed 11:17:56 AM 40.4953 -100.5961 260° West 486 559 43,000  Level Denver Center
Wed 11:18:58 AM 40.4697 -100.7936 260° West 488 562 43,000  Level Denver Center
Wed 11:20:00 AM 40.4472 -100.9614 260° West 484 557 43,000  Level Denver Center
Wed 11:21:02 AM 40.4211 -101.1558 260° West 484 557 43,000  Level Denver Center
Wed 11:22:04 AM 40.3989 -101.3211 260° West 479 551 43,000  Level Denver Center
Wed 11:23:07 AM 40.3719 -101.5144 260° West 480 552 43,000  Level Denver Center
Wed 11:24:09 AM 40.3489 -101.6800 260° West 481 554 43,000  Level Denver Center
Wed 11:25:23 AM 40.3167 -101.9003 259° West 482 555 43,000  Level Denver Center
Wed 11:26:25 AM 40.2928 -102.0658 259° West 483 556 43,000  Level Denver Center
Wed 11:27:27 AM 40.2653 -102.2594 260° West 484 557 43,000  Level Denver Center
Wed 11:28:29 AM 40.2411 -102.4253 259° West 485 558 43,000  Level Denver Center
Wed 11:29:31 AM 40.2133 -102.6186 259° West 484 557 43,000  Level Denver Center
Wed 11:30:33 AM 40.1883 -102.7806 259° West 478 550 43,000  Level Denver Center
Wed 11:31:35 AM 40.1597 -102.9703 259° West 477 549 43,000  Level Denver Center
Wed 11:33:23 AM 40.1133 -103.2614 258° West 476 548 43,000  Level Salt Lake Center
Wed 11:34:25 AM 40.0839 -103.4478 258° West 473 544 43,000  Level Salt Lake Center
Wed 11:35:27 AM 40.0578 -103.6094 258° West 473 544 43,000  Level Salt Lake Center
Wed 11:36:29 AM 40.0328 -103.7700 259° West 472 543 43,000  Level Salt Lake Center
Wed 11:37:31 AM 40.0019 -103.9631 258° West 477 549 43,000  Level Salt Lake Center
Wed 11:38:33 AM 39.9756 -104.1272 258° West 480 552 43,000  Level Salt Lake Center
Wed 11:39:35 AM 39.9436 -104.3219 258° West 484 557 43,000  Level Salt Lake Center
Wed 11:40:37 AM 39.9164 -104.4842 258° West 484 557 43,000  Level Salt Lake Center
Wed 11:41:39 AM 39.8836 -104.6767 258° West 487 560 43,000  Level Salt Lake Center
Wed 11:42:41 AM 39.8506 -104.8439 256° West 489 563 43,000  Level Salt Lake Center
Wed 11:43:43 AM 39.8139 -105.0364 256° West 490 564 43,000  Level Salt Lake Center
Wed 11:44:13 AM 39.8014 -105.1125 258° West 485 558 43,000  Level Denver Center
Wed 11:45:15 AM 39.7650 -105.2936 255° West 482 555 43,000  Level Denver Center
Wed 11:46:17 AM 39.7314 -105.4658 256° West 493 567 43,000  Level Denver Center
Wed 11:47:19 AM 39.6967 -105.6467 256° West 485 558 43,000  Level Denver Center
Wed 11:48:21 AM 39.6606 -105.8203 255° West 487 560 43,000  Level Denver Center
Wed 11:49:23 AM 39.6258 -105.9947 256° West 478 550 43,000  Level Denver Center
Wed 11:50:25 AM 39.5908 -106.1658 255° West 489 563 43,000  Level Denver Center
Wed 11:51:27 AM 39.5561 -106.3353 255° West 488 562 43,000  Level Denver Center
Wed 11:52:29 AM 39.5206 -106.5069 255° West 491 565 43,000  Level Denver Center
Wed 11:53:31 AM 39.4811 -106.6919 255° West 483 556 43,000  Level Denver Center
Wed 11:54:33 AM 39.4444 -106.8542 254° West 489 563 43,000  Level Denver Center
Wed 11:55:35 AM 39.4022 -107.0436 254° West 491 565 43,000  Level Denver Center
Wed 11:56:37 AM 39.3617 -107.2039 252° West 491 565 43,000  Level Denver Center
Wed 11:57:39 AM 39.3142 -107.3881 252° West 485 558 43,000  Level Denver Center
Wed 11:58:42 AM 39.2728 -107.5464 251° West 483 556 43,000  Level Denver Center
Wed 11:59:44 AM 39.2258 -107.7319 252° West 486 559 43,000  Level Denver Center
Wed 12:00:46 PM 39.1858 -107.8892 252° West 484 557 43,000  Level Denver Center
Wed 12:01:48 PM 39.1378 -108.0736 251° West 485 558 43,000  Level Denver Center
Wed 12:02:50 PM 39.0978 -108.2297 252° West 481 554 43,000  Level Denver Center
Wed 12:03:52 PM 39.0550 -108.3886 251° West 489 563 43,000  Level Denver Center
Wed 12:04:54 PM 39.0069 -108.5722 251° West 486 559 43,000  Level Denver Center
Wed 12:05:56 PM 38.9661 -108.7269 251° West 477 549 43,000  Level Denver Center
Wed 12:06:58 PM 38.9172 -108.9072 251° West 477 549 43,000  Level Denver Center
Wed 12:08:00 PM 38.8747 -109.0614 251° West 478 550 43,000  Level Denver Center
Wed 12:09:02 PM 38.8269 -109.2408 251° West 476 548 43,000  Level Denver Center
Wed 12:10:04 PM 38.7850 -109.3939 251° West 474 545 43,000  Level Denver Center
Wed 12:11:06 PM 38.7356 -109.5722 250° West 474 545 43,000  Level Denver Center
Wed 12:12:08 PM 38.6931 -109.7233 250° West 470 541 43,000  Level Denver Center
Wed 12:13:11 PM 38.6442 -109.8989 250° West 471 542 43,000  Level Denver Center
Wed 12:14:13 PM 38.6022 -110.0489 250° West 468 539 43,000  Level Denver Center
Wed 12:15:15 PM 38.5603 -110.1967 250° West 463 533 43,000  Level Denver Center
Wed 12:16:17 PM 38.5117 -110.3719 251° West 468 539 43,000  Level Denver Center
Wed 12:16:48 PM 38.4892 -110.4447 248° West 464 534 43,000  Level Salt Lake Center
Wed 12:17:50 PM 38.4397 -110.6189 250° West 466 536 43,000  Level Salt Lake Center
Wed 12:18:21 PM 38.4181 -110.6922 249° West 465 535 43,000  Level Denver Center
Wed 12:18:52 PM 38.3919 -110.7647 245° Southwest 467 537 43,000  Level Salt Lake Center
Wed 12:19:54 PM 38.3164 -110.9264 239° Southwest 473 544 43,000  Level Salt Lake Center
Wed 12:20:57 PM 38.2542 -111.0675 241° Southwest 470 541 43,000  Level Salt Lake Center
Wed 12:21:59 PM 38.1903 -111.2111 241° Southwest 467 537 43,000  Level Salt Lake Center
Wed 12:23:01 PM 38.1269 -111.3492 240° Southwest 456 525 43,000  Level Salt Lake Center
Wed 12:24:03 PM 38.0661 -111.4850 240° Southwest 447 514 43,000  Level Salt Lake Center
Wed 12:25:05 PM 37.9925 -111.6486 240° Southwest 444 511 43,000  Level Salt Lake Center
Wed 12:26:07 PM 37.9297 -111.7831 239° Southwest 444 511 43,000  Level Salt Lake Center
Wed 12:27:09 PM 37.8681 -111.9192 240° Southwest 445 512 43,000  Level Salt Lake Center
Wed 12:28:11 PM 37.8056 -112.0550 240° Southwest 446 513 43,000  Level Salt Lake Center
Wed 12:29:13 PM 37.7428 -112.1903 240° Southwest 447 514 43,000  Level Salt Lake Center
Wed 12:30:15 PM 37.6767 -112.3236 238° Southwest 447 514 43,000  Level Salt Lake Center
Wed 12:31:17 PM 37.5964 -112.4481 231° Southwest 452 520 43,000  Level Salt Lake Center
Wed 12:32:19 PM 37.4986 -112.5992 231° Southwest 458 527 43,000  Level Salt Lake Center
Wed 12:33:21 PM 37.4147 -112.7269 230° Southwest 463 533 43,000  Level Salt Lake Center
Wed 12:34:23 PM 37.3308 -112.8558 231° Southwest 468 539 43,000  Level Salt Lake Center
Wed 12:35:21 PM 37.2497 -112.9833 231° Southwest 466 536 43,000  Level Los Angeles Center
Wed 12:36:23 PM 37.1681 -113.1097 231° Southwest 464 534 43,000  Level Los Angeles Center
Wed 12:37:29 PM 37.0864 -113.2361 231° Southwest 464 534 43,000  Level Salt Lake Center
Wed 12:38:28 PM 37.0042 -113.3586 230° Southwest 462 532 43,000  Level Los Angeles Center
Wed 12:39:30 PM 36.9242 -113.4831 231° Southwest 459 528 43,000  Level Los Angeles Center
Wed 12:40:32 PM 36.8400 -113.6039 229° Southwest 461 531 43,000  Level Los Angeles Center
Wed 12:41:33 PM 36.7764 -113.7014 231° Southwest 457 526 43,000  Level Los Angeles Center
Wed 12:42:36 PM 36.6639 -113.8700 230° Southwest 452 520 43,000  Level Los Angeles Center
Wed 12:43:38 PM 36.5872 -113.9919 232° Southwest 449 517 43,000  Level Los Angeles Center
Wed 12:44:40 PM 36.5067 -114.1097 230° Southwest 447 514 43,000  Level Los Angeles Center
Wed 12:45:42 PM 36.4186 -114.2419 230° Southwest 447 514 43,000  Level Los Angeles Center
Wed 12:46:44 PM 36.3383 -114.3606 230° Southwest 447 514 43,000  Level Los Angeles Center
Wed 12:47:59 PM 36.2411 -114.5042 230° Southwest 451 519 43,000 -175 Level Los Angeles Center
Wed 12:49:01 PM 36.1586 -114.6233 229° Southwest 452 520 42,600 -677 Descending Los Angeles Center
Wed 12:50:03 PM 36.0772 -114.7433 230° Southwest 452 520 41,600 -968 Descending Los Angeles Center
Wed 12:51:05 PM 35.9953 -114.8625 230° Southwest 452 520 40,600 -1,065 Descending Los Angeles Center
Wed 12:52:07 PM 35.9131 -114.9750 228° Southwest 441 507 39,400 -1,344 Descending Los Angeles Center
Wed 12:53:10 PM 35.8083 -115.1147 227° Southwest 457 526 37,800 -1,392 Descending Los Angeles Center
Wed 12:54:12 PM 35.7231 -115.2342 229° Southwest 460 529 36,500 -1,306 Descending Los Angeles Center
Wed 12:55:14 PM 35.6344 -115.3536 228° Southwest 466 536 35,100 -1,403 Descending Los Angeles Center
Wed 12:56:16 PM 35.5450 -115.4761 228° Southwest 474 545 33,600 -1,220 Descending Los Angeles Center
Wed 12:57:17 PM 35.4714 -115.5736 227° Southwest 481 554 32,600 -1,065 Descending Los Angeles Center
Wed 12:58:20 PM 35.3514 -115.7333 227° Southwest 488 562 31,400 -1,152 Descending Los Angeles Center
Wed 12:59:22 PM 35.2600 -115.8531 227° Southwest 484 557 30,200 -1,210 Descending Los Angeles Center
Wed 01:00:24 PM 35.1678 -115.9769 228° Southwest 490 564 28,900 -1,210 Descending Los Angeles Center
Wed 01:01:26 PM 35.0733 -116.1003 227° Southwest 494 568 27,700 -1,210 Descending Los Angeles Center
Wed 01:02:28 PM 34.9811 -116.2208 227° Southwest 489 563 26,400 -1,248 Descending Los Angeles Center
Wed 01:03:31 PM 34.8903 -116.3403 227° Southwest 483 556 25,100 -1,440 Descending Los Angeles Center
Wed 01:04:33 PM 34.7972 -116.4908 233° Southwest 472 543 23,400 -1,317 Descending Los Angeles Center
Wed 01:05:34 PM 34.7833 -116.6111 262° West 449 517 22,400 -1,210 Descending Los Angeles Center
Wed 01:06:37 PM 34.7658 -116.7853 263° West 433 498 20,900 -1,051 Descending Los Angeles Center
Wed 01:07:51 PM 34.7519 -116.9228 263° West 414 476 20,000 -397 Descending Los Angeles Center
Wed 01:08:53 PM 34.7350 -117.0856 263° West 404 465 20,000 -387 Level Los Angeles Center
Wed 01:09:55 PM 34.7217 -117.2183 263° West 396 456 19,200 -1,488 Descending Los Angeles Center
Wed 01:10:58 PM 34.7053 -117.3689 262° West 375 432 16,900 -2,064 Descending Los Angeles Center
Wed 01:12:00 PM 34.6939 -117.4875 263° West 355 409 14,900 -1,839 Descending Los Angeles Center
Wed 01:13:02 PM 34.6767 -117.6058 260° West 355 409 13,100 -1,403 Descending Los Angeles Center
Wed 01:14:04 PM 34.6594 -117.7292 260° West 366 421 12,000 -532 Descending Los Angeles Center
Wed 01:15:06 PM 34.6417 -117.8528 260° West 373 429 12,000  Level Los Angeles Center
Wed 01:16:08 PM 34.6242 -117.9744 260° West 367 422 12,000 -48 Level Los Angeles Center
Wed 01:17:10 PM 34.6061 -118.0969 260° West 366 421 11,900 -823 Descending Los Angeles Center
Wed 01:18:12 PM 34.5881 -118.2181 260° West 334 384 10,300 -1,548 Descending Los Angeles Center
Wed 01:19:14 PM 34.5725 -118.3181 259° West 305 351 8,700 -1,113 Descending Los Angeles Center
Wed 01:20:16 PM 34.5511 -118.4256 256° West 277 319 8,000 -581 Descending Los Angeles Center
Wed 01:21:18 PM 34.5136 -118.4961 237° Southwest 269 310 7,500 -480 Descending Los Angeles Center
Wed 01:22:21 PM 34.4422 -118.5275 200° South 274 315 7,000 -672 Descending Los Angeles Center
Wed 01:23:23 PM 34.3722 -118.5094 168° South 254 292 6,100 -1,355 Descending Los Angeles Center
Wed 01:24:25 PM 34.3175 -118.5028 174° South 212 244 4,200 -1,790 Descending Los Angeles Center
Wed 01:25:27 PM 34.2672 -118.4981 176° South 196 226 2,400 -1,452 Descending Los Angeles Center
Wed 01:26:29 PM 34.2308 -118.4939 175° South 160 184 1,200 -774 Descending Los Angeles Center
Wed 01:27:31 PM 34.1875 -118.4883 174° South 155 178 800 -387 Descending Los Angeles Center
Wed 01:29:00 PM 34.2000 -118.4833 North  Level FlightAware Approximate

Login

Don't have an account? Register now (free) for customized features, flight alerts, and more!